Time;durP1;ratioP1;P1;durP2;ratioP2;P2;SDS_P1;SDS_P2;PMS_P1;PMS_P2;Temp;Humidity;BMP_temperature;BMP_pressure;BME280_temperature;BME280_humidity;BME280_pressure;Samples;Min_cycle;Max_cycle;Signal;HPM_P1;HPM_P2
2022/07/19 00:02:14;;;;;;;;;;;;;;;;;;4992983;28;1056;-75
2022/07/19 00:04:41;;;;;;;;;;;;;;;;;;4992967;28;1171;-75
2022/07/19 00:07:07;;;;;;;;;;;;;;;;;;4992174;28;1361;-75
2022/07/19 00:09:33;;;;;;;;;;;;;;;;;;4992706;28;1903;-76
2022/07/19 00:12:00;;;;;;;;;;;;;;;;;;4992009;28;1108;-76
2022/07/19 00:14:26;;;;;;;;;;;;;;;;;;4991758;28;886;-76
2022/07/19 00:16:52;;;;;;;;;;;;;;;;;;4990861;28;1306;-75
2022/07/19 00:19:19;;;;;;;;;;;;;;;;;;4990309;28;1262;-75
2022/07/19 00:21:46;;;;;;;;;;;;;;;;;;4991186;28;1394;-75
2022/07/19 00:24:12;;;;;;;;;;;;;;;;;;4991409;28;1564;-75
2022/07/19 00:26:39;;;;;;;;;;;;;;;;;;4990876;28;1307;-75
2022/07/19 00:29:05;;;;;;;;;;;;;;;;;;4991416;28;1906;-75
2022/07/19 00:31:31;;;;;;;;;;;;;;;;;;4991610;28;834;-75
2022/07/19 00:33:57;;;;;;;;;;;;;;;;;;4991524;28;1084;-75
2022/07/19 00:36:23;;;;;;;;;;;;;;;;;;4989465;28;1431;-75
2022/07/19 00:38:51;;;;;;;;;;;;;;;;;;4990176;28;1142;-75
2022/07/19 00:41:17;;;;;;;;;;;;;;;;;;4990225;28;1324;-75
2022/07/19 00:43:44;;;;;;;;;;;;;;;;;;4991551;28;948;-75
2022/07/19 00:46:12;;;;;;;;;;;;;;;;;;4990631;28;1256;-74
2022/07/19 00:48:38;;;;;;;;;;;;;;;;;;4991458;28;1123;-75
2022/07/19 00:51:04;;;;;;;;;;;;;;;;;;4991151;28;1919;-76
2022/07/19 00:53:31;;;;;;;;;;;;;;;;;;4991354;28;1052;-75
2022/07/19 00:55:58;;;;;;;;;;;;;;;;;;4990320;28;1324;-76
2022/07/19 00:58:24;;;;;;;;;;;;;;;;;;4989389;28;1152;-75
2022/07/19 01:00:51;;;;;;;;;;;;;;;;;;4991476;28;1115;-75
2022/07/19 01:03:17;;;;;;;;;;;;;;;;;;4991256;28;867;-75
2022/07/19 01:05:44;;;;;;;;;;;;;;;;;;4984333;28;1323;-74
2022/07/19 01:08:10;;;;;;;;;;;;;;;;;;4990136;28;1229;-75
2022/07/19 01:10:36;;;;;;;;;;;;;;;;;;4994992;28;1918;-75
2022/07/19 01:13:03;;;;;;;;;;;;;;;;;;4994604;28;992;-76
2022/07/19 01:15:30;;;;;;;;;;;;;;;;;;4994965;28;1119;-75
2022/07/19 01:17:56;;;;;;;;;;;;;;;;;;4993929;28;1313;-76
2022/07/19 01:20:23;;;;;;;;;;;;;;;;;;4993375;28;1324;-75
2022/07/19 01:22:50;;;;;;;;;;;;;;;;;;4993432;28;1253;-75
2022/07/19 01:25:17;;;;;;;;;;;;;;;;;;4993337;28;1190;-75
2022/07/19 01:27:44;;;;;;;;;;;;;;;;;;4993917;28;1381;-75
2022/07/19 01:30:11;;;;;;;;;;;;;;;;;;4994455;28;1969;-75
2022/07/19 01:32:37;;;;;;;;;;;;;;;;;;4994632;28;1120;-75
2022/07/19 01:35:03;;;;;;;;;;;;;;;;;;4994388;28;1072;-75
2022/07/19 01:37:29;;;;;;;;;;;;;;;;;;4993675;28;1317;-75
2022/07/19 01:39:58;;;;;;;;;;;;;;;;;;4994452;28;834;-75
2022/07/19 01:42:24;;;;;;;;;;;;;;;;;;4992983;28;1454;-73
2022/07/19 01:44:50;;;;;;;;;;;;;;;;;;4994270;28;898;-75
2022/07/19 01:47:17;;;;;;;;;;;;;;;;;;4993499;28;1417;-75
2022/07/19 01:49:43;;;;;;;;;;;;;;;;;;4994300;28;1914;-75
2022/07/19 01:52:09;;;;;;;;;;;;;;;;;;4994158;28;1119;-75
2022/07/19 01:54:35;;;;;;;;;;;;;;;;;;4994192;28;926;-76
2022/07/19 01:57:03;;;;;;;;;;;;;;;;;;4992093;28;1380;-75
2022/07/19 01:59:29;;;;;;;;;;;;;;;;;;4992960;28;1343;-75
2022/07/19 02:01:55;;;;;;;;;;;;;;;;;;4994141;28;905;-75
2022/07/19 02:04:21;;;;;;;;;;;;;;;;;;4993843;28;1065;-75
2022/07/19 02:06:48;;;;;;;;;;;;;;;;;;4992966;28;1389;-75
2022/07/19 02:09:14;;;;;;;;;;;;;;;;;;4993766;28;1058;-74
2022/07/19 02:11:40;;;;;;;;;;;;;;;;;;4993612;28;1918;-75
2022/07/19 02:14:08;;;;;;;;;;;;;;;;;;4993731;28;926;-76
2022/07/19 02:16:34;;;;;;;;;;;;;;;;;;4991647;28;1349;-75
2022/07/19 02:19:01;;;;;;;;;;;;;;;;;;4993536;28;807;-75
2022/07/19 02:21:27;;;;;;;;;;;;;;;;;;4992857;28;1088;-75
2022/07/19 02:23:53;;;;;;;;;;;;;;;;;;4993589;28;1021;-74
2022/07/19 02:26:19;;;;;;;;;;;;;;;;;;4992794;28;1348;-75
2022/07/19 02:28:45;;;;;;;;;;;;;;;;;;4993541;28;875;-75
2022/07/19 02:31:13;;;;;;;;;;;;;;;;;;4993141;28;1978;-75
2022/07/19 02:33:39;;;;;;;;;;;;;;;;;;4992887;28;1488;-75
2022/07/19 02:36:05;;;;;;;;;;;;;;;;;;4992664;28;1330;-76
2022/07/19 02:38:32;;;;;;;;;;;;;;;;;;4993305;28;1092;-75
2022/07/19 02:40:58;;;;;;;;;;;;;;;;;;4993208;28;1112;-75
2022/07/19 02:43:24;;;;;;;;;;;;;;;;;;4991992;28;1249;-75
2022/07/19 02:45:50;;;;;;;;;;;;;;;;;;4993022;28;1313;-75
2022/07/19 02:48:18;;;;;;;;;;;;;;;;;;4991043;28;1352;-75
2022/07/19 02:50:44;;;;;;;;;;;;;;;;;;4992869;28;1981;-76
2022/07/19 02:53:10;;;;;;;;;;;;;;;;;;4991642;28;1120;-76
2022/07/19 02:55:37;;;;;;;;;;;;;;;;;;4993029;28;1115;-76
2022/07/19 02:58:03;;;;;;;;;;;;;;;;;;4992413;28;1260;-76
2022/07/19 03:00:29;;;;;;;;;;;;;;;;;;4993123;28;1111;-76
2022/07/19 03:02:55;;;;;;;;;;;;;;;;;;4992973;28;850;-76
2022/07/19 03:05:43;;;;;;;;;;;;;;;;;;4992788;28;1159;-76
2022/07/19 03:08:09;;;;;;;;;;;;;;;;;;4990321;28;1166;-76
2022/07/19 03:10:35;;;;;;;;;;;;;;;;;;4992718;28;1910;-76
2022/07/19 03:13:02;;;;;;;;;;;;;;;;;;4992496;28;1267;-76
2022/07/19 03:15:28;;;;;;;;;;;;;;;;;;4992798;28;778;-76
2022/07/19 03:17:54;;;;;;;;;;;;;;;;;;4990503;28;1496;-76
2022/07/19 03:20:20;;;;;;;;;;;;;;;;;;4992491;28;1127;-76
2022/07/19 03:22:48;;;;;;;;;;;;;;;;;;4992470;28;997;-76
2022/07/19 03:25:14;;;;;;;;;;;;;;;;;;4994283;28;1532;-77
2022/07/19 03:27:40;;;;;;;;;;;;;;;;;;4993664;28;1695;-78
2022/07/19 03:30:07;;;;;;;;;;;;;;;;;;5008333;28;2348;-78
2022/07/19 03:32:33;;;;;;;;;;;;;;;;;;5005053;28;1143;-78
2022/07/19 03:35:00;;;;;;;;;;;;;;;;;;5012381;28;779;-78
2022/07/19 03:37:26;;;;;;;;;;;;;;;;;;4993779;28;1476;-78
2022/07/19 03:39:53;;;;;;;;;;;;;;;;;;5000738;28;1457;-77
2022/07/19 03:42:19;;;;;;;;;;;;;;;;;;4999527;28;1146;-77
2022/07/19 03:44:46;;;;;;;;;;;;;;;;;;4996146;28;1413;-76
2022/07/19 03:47:12;;;;;;;;;;;;;;;;;;4985585;28;1282;-76
2022/07/19 03:49:38;;;;;;;;;;;;;;;;;;5001168;28;1432;-77
2022/07/19 03:52:04;;;;;;;;;;;;;;;;;;5002169;28;1973;-75
2022/07/19 03:54:30;;;;;;;;;;;;;;;;;;5011831;28;806;-76
2022/07/19 03:56:58;;;;;;;;;;;;;;;;;;5010888;28;1286;-77
2022/07/19 03:59:24;;;;;;;;;;;;;;;;;;5008489;28;1635;-76
2022/07/19 04:01:50;;;;;;;;;;;;;;;;;;4999548;28;1279;-76
2022/07/19 04:04:17;;;;;;;;;;;;;;;;;;4994516;28;1272;-76
2022/07/19 04:06:43;;;;;;;;;;;;;;;;;;4981204;28;1594;-77
2022/07/19 04:09:09;;;;;;;;;;;;;;;;;;5002558;28;1402;-75
2022/07/19 04:11:35;;;;;;;;;;;;;;;;;;4986475;28;1981;-75
2022/07/19 04:14:03;;;;;;;;;;;;;;;;;;4977783;28;1668;-75
2022/07/19 04:16:29;;;;;;;;;;;;;;;;;;4998730;28;1424;-77
2022/07/19 04:18:55;;;;;;;;;;;;;;;;;;4998944;28;1425;-77
2022/07/19 04:21:21;;;;;;;;;;;;;;;;;;4998909;28;1599;-78
2022/07/19 04:23:48;;;;;;;;;;;;;;;;;;5006405;28;1436;-76
2022/07/19 04:26:14;;;;;;;;;;;;;;;;;;5010289;28;1399;-75
2022/07/19 04:28:40;;;;;;;;;;;;;;;;;;5011495;28;1024;-76
2022/07/19 04:31:07;;;;;;;;;;;;;;;;;;5010839;28;1911;-75
2022/07/19 04:33:34;;;;;;;;;;;;;;;;;;4996615;28;1555;-73
2022/07/19 04:36:00;;;;;;;;;;;;;;;;;;4974051;28;1322;-75
2022/07/19 04:38:26;;;;;;;;;;;;;;;;;;4990915;28;1060;-74
2022/07/19 04:40:52;;;;;;;;;;;;;;;;;;4991198;28;1187;-74
2022/07/19 04:43:18;;;;;;;;;;;;;;;;;;4975142;28;1334;-75
2022/07/19 04:45:45;;;;;;;;;;;;;;;;;;4977849;28;1326;-74
2022/07/19 04:48:13;;;;;;;;;;;;;;;;;;4977251;28;1242;-74
2022/07/19 04:50:39;;;;;;;;;;;;;;;;;;4995158;28;1975;-73
2022/07/19 04:53:06;;;;;;;;;;;;;;;;;;4995335;28;1065;-76
2022/07/19 04:55:32;;;;;;;;;;;;;;;;;;4994958;28;1072;-76
2022/07/19 04:57:58;;;;;;;;;;;;;;;;;;4994158;28;1421;-76
2022/07/19 05:00:24;;;;;;;;;;;;;;;;;;4977611;28;1156;-76
2022/07/19 05:02:51;;;;;;;;;;;;;;;;;;4994784;28;806;-75
2022/07/19 05:05:18;;;;;;;;;;;;;;;;;;4994882;28;1172;-76
2022/07/19 05:07:44;;;;;;;;;;;;;;;;;;4993994;28;1313;-74
2022/07/19 05:10:11;;;;;;;;;;;;;;;;;;4994919;28;1088;-77
2022/07/19 05:12:37;;;;;;;;;;;;;;;;;;4993498;28;1922;-75
2022/07/19 05:15:04;;;;;;;;;;;;;;;;;;4993804;28;1350;-76
2022/07/19 05:17:30;;;;;;;;;;;;;;;;;;4993862;28;1298;-76
2022/07/19 05:19:56;;;;;;;;;;;;;;;;;;5018364;22;3567;-72
2022/07/19 05:22:25;;;;;;;;;;;;;;;;;;5054333;28;1333;-73
2022/07/19 05:24:51;;;;;;;;;;;;;;;;;;5073162;28;794;-73
2022/07/19 05:27:17;;;;;;;;;;;;;;;;;;5073235;28;952;-73
2022/07/19 05:29:43;;;;;;;;;;;;;;;;;;5071113;28;1331;-72
2022/07/19 05:32:10;;;;;;;;;;;;;;;;;;5035664;28;1981;-73
2022/07/19 05:34:36;;;;;;;;;;;;;;;;;;5035690;28;1262;-73
2022/07/19 05:37:02;;;;;;;;;;;;;;;;;;5052884;28;1110;-73
2022/07/19 05:39:30;;;;;;;;;;;;;;;;;;5053666;28;1396;-72
2022/07/19 05:41:56;;;;;;;;;;;;;;;;;;5053353;28;1143;-73
2022/07/19 05:44:22;;;;;;;;;;;;;;;;;;5035746;28;1286;-73
2022/07/19 05:46:48;;;;;;;;;;;;;;;;;;5052605;28;934;-74
2022/07/19 05:49:14;;;;;;;;;;;;;;;;;;5035637;28;1132;-74
2022/07/19 05:51:41;;;;;;;;;;;;;;;;;;5035218;28;1914;-74
2022/07/19 05:54:07;;;;;;;;;;;;;;;;;;5052996;28;925;-74
2022/07/19 05:56:35;;;;;;;;;;;;;;;;;;5052280;28;1044;-74
2022/07/19 05:59:01;;;;;;;;;;;;;;;;;;5035428;28;1182;-74
2022/07/19 06:01:28;;;;;;;;;;;;;;;;;;5053307;28;1304;-74
2022/07/19 06:03:55;;;;;;;;;;;;;;;;;;5053184;28;826;-75
2022/07/19 06:06:21;;;;;;;;;;;;;;;;;;5052391;28;1174;-74
2022/07/19 06:08:48;;;;;;;;;;;;;;;;;;5052900;28;1083;-71
2022/07/19 06:11:14;;;;;;;;;;;;;;;;;;5052817;28;1977;-72
2022/07/19 06:13:42;;;;;;;;;;;;;;;;;;5052912;28;930;-71
2022/07/19 06:16:08;;;;;;;;;;;;;;;;;;5034185;28;1092;-71
2022/07/19 06:18:35;;;;;;;;;;;;;;;;;;5052979;28;734;-72
2022/07/19 06:21:01;;;;;;;;;;;;;;;;;;5052497;28;1356;-73
2022/07/19 06:23:28;;;;;;;;;;;;;;;;;;5035046;28;1307;-73
2022/07/19 06:25:54;;;;;;;;;;;;;;;;;;5051940;28;1063;-73
2022/07/19 06:28:20;;;;;;;;;;;;;;;;;;5034040;28;1626;-73
2022/07/19 06:30:47;;;;;;;;;;;;;;;;;;5052374;28;1914;-72
2022/07/19 06:33:13;;;;;;;;;;;;;;;;;;5052535;28;1051;-72
2022/07/19 06:35:40;;;;;;;;;;;;;;;;;;5034730;28;870;-73
2022/07/19 06:38:06;;;;;;;;;;;;;;;;;;5051811;28;1108;-72
2022/07/19 06:40:32;;;;;;;;;;;;;;;;;;5034609;28;1462;-73
2022/07/19 06:42:58;;;;;;;;;;;;;;;;;;5046636;28;1452;-74
2022/07/19 06:45:24;;;;;;;;;;;;;;;;;;5051588;28;914;-74
2022/07/19 06:47:52;;;;;;;;;;;;;;;;;;5049510;28;1081;-74
2022/07/19 06:50:18;;;;;;;;;;;;;;;;;;5051891;28;1412;-74
2022/07/19 06:52:44;;;;;;;;;;;;;;;;;;5051793;28;1903;-73
2022/07/19 06:55:11;;;;;;;;;;;;;;;;;;5051574;28;890;-74
2022/07/19 06:57:37;;;;;;;;;;;;;;;;;;5051091;28;1130;-73
2022/07/19 07:00:03;;;;;;;;;;;;;;;;;;5051622;28;1399;-73
2022/07/19 07:02:30;;;;;;;;;;;;;;;;;;5051970;28;1075;-74
2022/07/19 07:04:57;;;;;;;;;;;;;;;;;;5051191;28;1532;-74
2022/07/19 07:07:23;;;;;;;;;;;;;;;;;;5050135;28;1194;-74
2022/07/19 07:09:49;;;;;;;;;;;;;;;;;;5051082;28;1398;-73
2022/07/19 07:12:15;;;;;;;;;;;;;;;;;;5033397;28;1981;-73
2022/07/19 07:14:42;;;;;;;;;;;;;;;;;;5051381;28;815;-73
2022/07/19 07:17:08;;;;;;;;;;;;;;;;;;5050208;28;1000;-73
2022/07/19 07:19:34;;;;;;;;;;;;;;;;;;5051267;28;1326;-73
2022/07/19 07:22:02;;;;;;;;;;;;;;;;;;5050794;28;958;-74
2022/07/19 07:24:28;;;;;;;;;;;;;;;;;;5050990;28;1122;-74
2022/07/19 07:26:54;;;;;;;;;;;;;;;;;;5050032;28;1060;-73
2022/07/19 07:29:20;;;;;;;;;;;;;;;;;;5033311;28;1159;-74
2022/07/19 07:31:47;;;;;;;;;;;;;;;;;;5050579;28;1914;-73
2022/07/19 07:34:13;;;;;;;;;;;;;;;;;;5032460;28;1340;-74
2022/07/19 07:36:39;;;;;;;;;;;;;;;;;;5049434;28;1256;-74
2022/07/19 07:39:06;;;;;;;;;;;;;;;;;;5032634;28;1241;-74
2022/07/19 07:41:33;;;;;;;;;;;;;;;;;;5050330;28;1410;-74
2022/07/19 07:43:59;;;;;;;;;;;;;;;;;;5051348;28;1187;-74
2022/07/19 07:46:25;;;;;;;;;;;;;;;;;;5055581;28;1080;-74
2022/07/19 07:48:51;;;;;;;;;;;;;;;;;;5056302;28;1032;-73
2022/07/19 07:51:17;;;;;;;;;;;;;;;;;;5050620;28;1914;-74
2022/07/19 07:53:43;;;;;;;;;;;;;;;;;;5050253;28;1067;-73
2022/07/19 07:56:11;;;;;;;;;;;;;;;;;;5049841;28;1112;-74
2022/07/19 07:58:38;;;;;;;;;;;;;;;;;;5050612;28;790;-74
2022/07/19 08:01:04;;;;;;;;;;;;;;;;;;5050312;28;1408;-74
2022/07/19 08:03:30;;;;;;;;;;;;;;;;;;5050493;28;1131;-74
2022/07/19 08:05:57;;;;;;;;;;;;;;;;;;5050090;28;1237;-74
2022/07/19 08:08:26;;;;;;;;;;;;;;;;;;5049432;28;1036;-74
2022/07/19 08:10:52;;;;;;;;;;;;;;;;;;5032398;28;1348;-74
2022/07/19 08:13:20;;;;;;;;;;;;;;;;;;5050378;28;1981;-74
2022/07/19 08:15:46;;;;;;;;;;;;;;;;;;5050045;28;830;-74
2022/07/19 08:18:12;;;;;;;;;;;;;;;;;;5031188;28;1136;-74
2022/07/19 08:20:38;;;;;;;;;;;;;;;;;;5050140;28;1310;-74
2022/07/19 08:23:05;;;;;;;;;;;;;;;;;;5032441;28;1319;-74
2022/07/19 08:25:32;;;;;;;;;;;;;;;;;;5050149;28;878;-74
2022/07/19 08:27:58;;;;;;;;;;;;;;;;;;5031253;28;1197;-75
2022/07/19 08:30:26;;;;;;;;;;;;;;;;;;5032369;28;1314;-74
2022/07/19 08:32:52;;;;;;;;;;;;;;;;;;5049998;28;1956;-74
2022/07/19 08:35:18;;;;;;;;;;;;;;;;;;5050189;28;1004;-74
2022/07/19 08:37:45;;;;;;;;;;;;;;;;;;5049007;28;1072;-73
2022/07/19 08:40:11;;;;;;;;;;;;;;;;;;5050132;28;1404;-75
2022/07/19 08:42:37;;;;;;;;;;;;;;;;;;5049985;28;1163;-74
2022/07/19 08:45:05;;;;;;;;;;;;;;;;;;5049392;28;1467;-74
2022/07/19 08:47:32;;;;;;;;;;;;;;;;;;5049184;28;984;-75
2022/07/19 08:49:58;;;;;;;;;;;;;;;;;;5049722;28;1437;-73
2022/07/19 08:52:25;;;;;;;;;;;;;;;;;;5050280;28;1914;-74
2022/07/19 08:54:51;;;;;;;;;;;;;;;;;;5050015;28;917;-74
2022/07/19 09:00:01;;;;;;;;;;;;;;;;;;5049391;28;1403;-75
2022/07/19 09:02:27;;;;;;;;;;;;;;;;;;5032094;28;1080;-75
2022/07/19 09:05:02;;;;;;;;;;;;;;;;;;5031928;28;1266;-74
2022/07/19 09:07:28;;;;;;;;;;;;;;;;;;5048827;28;1166;-74
2022/07/19 09:09:54;;;;;;;;;;;;;;;;;;5031952;28;1414;-75
2022/07/19 09:12:20;;;;;;;;;;;;;;;;;;5049803;28;1914;-75
2022/07/19 09:14:53;;;;;;;;;;;;;;;;;;5049595;28;677;-76
2022/07/19 09:17:20;;;;;;;;;;;;;;;;;;5031320;28;1347;-75
2022/07/19 09:19:47;;;;;;;;;;;;;;;;;;5049564;28;1324;-75
2022/07/19 09:22:15;;;;;;;;;;;;;;;;;;5032225;28;1133;-75
2022/07/19 09:24:42;;;;;;;;;;;;;;;;;;5031433;28;1147;-75
2022/07/19 09:27:09;;;;;;;;;;;;;;;;;;5049081;28;898;-75
2022/07/19 09:29:36;;;;;;;;;;;;;;;;;;5051307;28;1258;-74
2022/07/19 09:32:12;;;;;;;;;;;;;;;;;;5053279;28;1934;-75
2022/07/19 09:34:39;;;;;;;;;;;;;;;;;;5053119;28;1093;-75
2022/07/19 09:37:09;;;;;;;;;;;;;;;;;;5034542;28;1152;-75
2022/07/19 09:39:39;;;;;;;;;;;;;;;;;;5053334;28;1316;-75
2022/07/19 09:42:05;;;;;;;;;;;;;;;;;;5052978;28;1138;-75
2022/07/19 09:44:31;;;;;;;;;;;;;;;;;;5052811;28;1124;-75
2022/07/19 09:46:57;;;;;;;;;;;;;;;;;;5052013;28;1102;-76
2022/07/19 09:49:24;;;;;;;;;;;;;;;;;;5034473;28;1541;-75
2022/07/19 09:51:50;;;;;;;;;;;;;;;;;;5052421;28;1910;-75
2022/07/19 09:54:17;;;;;;;;;;;;;;;;;;5052814;28;969;-74
2022/07/19 09:56:45;;;;;;;;;;;;;;;;;;5052124;28;1096;-75
2022/07/19 09:59:12;;;;;;;;;;;;;;;;;;5052753;28;910;-75
2022/07/19 10:01:38;;;;;;;;;;;;;;;;;;5052513;28;1290;-76
2022/07/19 10:04:06;;;;;;;;;;;;;;;;;;5034747;28;1267;-76
2022/07/19 10:06:32;;;;;;;;;;;;;;;;;;5033689;28;1202;-75
2022/07/19 10:08:58;;;;;;;;;;;;;;;;;;5034795;28;1238;-76
2022/07/19 10:11:25;;;;;;;;;;;;;;;;;;5034969;28;1325;-76
2022/07/19 10:13:52;;;;;;;;;;;;;;;;;;5029058;28;1976;-75
2022/07/19 10:16:20;;;;;;;;;;;;;;;;;;5051453;28;1198;-75
2022/07/19 10:18:51;;;;;;;;;;;;;;;;;;5052364;28;1217;-75
2022/07/19 10:21:17;;;;;;;;;;;;;;;;;;5034377;28;1345;-75
2022/07/19 10:23:50;;;;;;;;;;;;;;;;;;5052352;28;1040;-75
2022/07/19 10:26:26;;;;;;;;;;;;;;;;;;5051739;28;1116;-75
2022/07/19 10:28:54;;;;;;;;;;;;;;;;;;5052051;28;1201;-75
2022/07/19 10:31:26;;;;;;;;;;;;;;;;;;5050125;28;1926;-75
2022/07/19 10:33:58;;;;;;;;;;;;;;;;;;5051113;28;1915;-75
2022/07/19 10:36:34;;;;;;;;;;;;;;;;;;5050744;28;1393;-75
2022/07/19 10:39:20;;;;;;;;;;;;;;;;;;5034299;28;1894;-75
2022/07/19 10:42:01;;;;;;;;;;;;;;;;;;5050411;28;1382;-75
2022/07/19 10:44:28;;;;;;;;;;;;;;;;;;5031648;28;1403;-76
2022/07/19 10:46:54;;;;;;;;;;;;;;;;;;5031068;28;1060;-75
2022/07/19 10:49:36;;;;;;;;;;;;;;;;;;5014209;28;1221;-75
2022/07/19 10:52:17;;;;;;;;;;;;;;;;;;5014128;28;1937;-76
2022/07/19 10:54:43;;;;;;;;;;;;;;;;;;5033332;28;1099;-75
2022/07/19 10:57:10;;;;;;;;;;;;;;;;;;5032195;28;1085;-74
2022/07/19 10:59:42;;;;;;;;;;;;;;;;;;5014753;28;1429;-75
2022/07/19 11:02:08;;;;;;;;;;;;;;;;;;5031587;28;1091;-75
2022/07/19 11:04:35;;;;;;;;;;;;;;;;;;5031634;28;890;-75
2022/07/19 11:07:11;;;;;;;;;;;;;;;;;;5032147;28;1310;-75
2022/07/19 11:09:41;;;;;;;;;;;;;;;;;;5051567;28;1404;-75
2022/07/19 11:12:19;;;;;;;;;;;;;;;;;;5051572;28;1040;-76
2022/07/19 11:14:47;;;;;;;;;;;;;;;;;;5051334;28;1043;-76
2022/07/19 11:17:13;;;;;;;;;;;;;;;;;;5032199;28;1388;-76
2022/07/19 11:19:40;;;;;;;;;;;;;;;;;;5050931;28;1341;-76
2022/07/19 11:22:06;;;;;;;;;;;;;;;;;;5051160;28;1411;-75
2022/07/19 11:24:32;;;;;;;;;;;;;;;;;;5051010;28;933;-75
2022/07/19 11:26:58;;;;;;;;;;;;;;;;;;5050335;28;834;-75
2022/07/19 11:29:25;;;;;;;;;;;;;;;;;;5050083;28;1346;-75
2022/07/19 11:31:52;;;;;;;;;;;;;;;;;;5049646;28;1439;-75
2022/07/19 11:34:21;;;;;;;;;;;;;;;;;;5049996;28;1922;-75
2022/07/19 11:36:56;;;;;;;;;;;;;;;;;;5032235;28;1032;-75
2022/07/19 11:39:23;;;;;;;;;;;;;;;;;;5050863;28;1132;-75
2022/07/19 11:41:49;;;;;;;;;;;;;;;;;;5050894;28;1342;-75
2022/07/19 11:44:15;;;;;;;;;;;;;;;;;;5050662;28;1171;-75
2022/07/19 11:46:41;;;;;;;;;;;;;;;;;;5049906;28;937;-75
2022/07/19 11:49:10;;;;;;;;;;;;;;;;;;5051136;28;1040;-77
2022/07/19 11:54:12;;;;;;;;;;;;;;;;;;4985691;28;1911;-78
2022/07/19 11:56:38;;;;;;;;;;;;;;;;;;4930114;28;1083;-78
2022/07/19 11:59:05;;;;;;;;;;;;;;;;;;4930576;29;1171;-77
2022/07/19 12:01:31;;;;;;;;;;;;;;;;;;4931416;29;1040;-77
2022/07/19 12:04:00;;;;;;;;;;;;;;;;;;5009232;28;1339;-79
2022/07/19 12:06:37;;;;;;;;;;;;;;;;;;4911266;29;946;-79
2022/07/19 12:09:04;;;;;;;;;;;;;;;;;;4913244;28;1109;-79
2022/07/19 12:11:30;;;;;;;;;;;;;;;;;;4916898;29;1215;-79
2022/07/19 12:13:58;;;;;;;;;;;;;;;;;;4916179;28;1981;-81
2022/07/19 12:16:25;;;;;;;;;;;;;;;;;;4914437;28;1529;-78
2022/07/19 12:18:52;;;;;;;;;;;;;;;;;;4914337;28;966;-80
2022/07/19 12:21:23;;;;;;;;;;;;;;;;;;5012944;28;1180;-79
2022/07/19 12:24:07;;;;;;;;;;;;;;;;;;4915471;28;1401;-79
2022/07/19 12:26:35;;;;;;;;;;;;;;;;;;5013499;28;862;-80
2022/07/19 12:29:01;;;;;;;;;;;;;;;;;;4915363;28;1118;-80
2022/07/19 12:31:27;;;;;;;;;;;;;;;;;;4915688;28;1131;-80
2022/07/19 12:33:58;;;;;;;;;;;;;;;;;;4914488;28;1920;-79
2022/07/19 12:36:32;;;;;;;;;;;;;;;;;;4911194;29;1257;-80
2022/07/19 12:38:59;;;;;;;;;;;;;;;;;;4913988;28;1092;-81
2022/07/19 12:41:25;;;;;;;;;;;;;;;;;;4914983;28;929;-81
2022/07/19 12:43:52;;;;;;;;;;;;;;;;;;4930779;28;1293;-79
2022/07/19 12:46:18;;;;;;;;;;;;;;;;;;4933883;28;767;-78
2022/07/19 12:48:45;;;;;;;;;;;;;;;;;;4921143;28;1171;-79
2022/07/19 12:51:11;;;;;;;;;;;;;;;;;;4916563;28;1158;-80
2022/07/19 12:53:37;;;;;;;;;;;;;;;;;;5015459;28;1923;-81
2022/07/19 12:56:03;;;;;;;;;;;;;;;;;;4916856;28;1071;-79
2022/07/19 13:01:15;;;;;;;;;;;;;;;;;;5015407;28;970;-80
2022/07/19 13:03:42;;;;;;;;;;;;;;;;;;4916375;29;1353;-79
2022/07/19 13:06:08;;;;;;;;;;;;;;;;;;4917669;29;859;-80
2022/07/19 13:08:34;;;;;;;;;;;;;;;;;;4919417;28;1059;-80
2022/07/19 13:11:00;;;;;;;;;;;;;;;;;;5021064;28;1076;-81
2022/07/19 13:13:26;;;;;;;;;;;;;;;;;;4927316;28;1907;-80
2022/07/19 13:15:52;;;;;;;;;;;;;;;;;;4926609;29;906;-80
2022/07/19 13:18:21;;;;;;;;;;;;;;;;;;4926198;29;1124;-80
2022/07/19 13:20:48;;;;;;;;;;;;;;;;;;4927009;28;1120;-80
2022/07/19 13:23:14;;;;;;;;;;;;;;;;;;4922446;29;1392;-80
2022/07/19 13:25:40;;;;;;;;;;;;;;;;;;4926486;28;965;-81
2022/07/19 13:28:06;;;;;;;;;;;;;;;;;;4928111;29;1520;-80
2022/07/19 13:30:33;;;;;;;;;;;;;;;;;;4928119;29;938;-80
2022/07/19 13:32:59;;;;;;;;;;;;;;;;;;5020949;28;1964;-80
2022/07/19 13:35:26;;;;;;;;;;;;;;;;;;4923407;29;760;-80
2022/07/19 13:37:53;;;;;;;;;;;;;;;;;;4919256;28;1123;-80
2022/07/19 13:40:19;;;;;;;;;;;;;;;;;;4916756;28;897;-79
2022/07/19 13:42:45;;;;;;;;;;;;;;;;;;4922857;28;1416;-80
2022/07/19 13:45:11;;;;;;;;;;;;;;;;;;4936242;28;1126;-79
2022/07/19 13:47:38;;;;;;;;;;;;;;;;;;4929556;28;1124;-80
2022/07/19 13:50:05;;;;;;;;;;;;;;;;;;4917751;29;1104;-80
2022/07/19 13:52:33;;;;;;;;;;;;;;;;;;5014078;28;1435;-79
2022/07/19 13:54:59;;;;;;;;;;;;;;;;;;4917614;29;1919;-80
2022/07/19 13:57:25;;;;;;;;;;;;;;;;;;4918981;28;990;-80
2022/07/19 13:59:51;;;;;;;;;;;;;;;;;;5016533;28;1243;-80
2022/07/19 14:02:17;;;;;;;;;;;;;;;;;;4921072;28;1383;-80
2022/07/19 14:04:43;;;;;;;;;;;;;;;;;;5016347;28;1207;-80
2022/07/19 14:07:10;;;;;;;;;;;;;;;;;;5012552;28;1362;-78
2022/07/19 14:09:37;;;;;;;;;;;;;;;;;;4915002;28;909;-79
2022/07/19 14:12:04;;;;;;;;;;;;;;;;;;4915112;28;1331;-81
2022/07/19 14:14:30;;;;;;;;;;;;;;;;;;4919304;29;1888;-81
2022/07/19 14:16:56;;;;;;;;;;;;;;;;;;4920796;28;933;-81
2022/07/19 14:19:22;;;;;;;;;;;;;;;;;;4921302;28;1048;-80
2022/07/19 14:21:48;;;;;;;;;;;;;;;;;;5015262;28;1411;-80
2022/07/19 14:24:14;;;;;;;;;;;;;;;;;;4916226;28;779;-78
2022/07/19 14:26:42;;;;;;;;;;;;;;;;;;4918672;28;1079;-80
2022/07/19 14:29:08;;;;;;;;;;;;;;;;;;4918045;28;1205;-79
2022/07/19 14:31:34;;;;;;;;;;;;;;;;;;4927672;28;874;-81
2022/07/19 14:34:00;;;;;;;;;;;;;;;;;;4926208;28;1891;-80
2022/07/19 14:36:27;;;;;;;;;;;;;;;;;;4923318;29;1765;-80
2022/07/19 14:38:53;;;;;;;;;;;;;;;;;;5023438;28;1256;-81
2022/07/19 14:41:19;;;;;;;;;;;;;;;;;;4925941;29;806;-80
2022/07/19 14:43:46;;;;;;;;;;;;;;;;;;4939938;29;1367;-80
2022/07/19 14:46:13;;;;;;;;;;;;;;;;;;4944392;28;1088;-80
2022/07/19 14:48:39;;;;;;;;;;;;;;;;;;4931446;28;1266;-81
2022/07/19 14:51:05;;;;;;;;;;;;;;;;;;4925320;28;1123;-80
2022/07/19 14:53:32;;;;;;;;;;;;;;;;;;4925733;28;1965;-82
2022/07/19 14:55:58;;;;;;;;;;;;;;;;;;4929418;28;1104;-79
2022/07/19 14:58:24;;;;;;;;;;;;;;;;;;4928541;29;1064;-80
2022/07/19 15:00:52;;;;;;;;;;;;;;;;;;5027495;28;1122;-80
2022/07/19 15:03:18;;;;;;;;;;;;;;;;;;4928448;28;1307;-79
2022/07/19 15:05:44;;;;;;;;;;;;;;;;;;4923333;28;1134;-80
2022/07/19 15:08:10;;;;;;;;;;;;;;;;;;4922537;28;1139;-81
2022/07/19 15:10:36;;;;;;;;;;;;;;;;;;4924633;28;1084;-80
2022/07/19 15:13:03;;;;;;;;;;;;;;;;;;4924428;28;1425;-82
2022/07/19 15:15:29;;;;;;;;;;;;;;;;;;4929445;29;1960;-80
2022/07/19 15:17:56;;;;;;;;;;;;;;;;;;4929144;28;1321;-79
2022/07/19 15:20:24;;;;;;;;;;;;;;;;;;4928181;28;1159;-80
2022/07/19 15:22:50;;;;;;;;;;;;;;;;;;4924787;28;1384;-79
2022/07/19 15:25:18;;;;;;;;;;;;;;;;;;4921320;28;989;-79
2022/07/19 15:27:44;;;;;;;;;;;;;;;;;;4922781;28;1049;-79
2022/07/19 15:30:11;;;;;;;;;;;;;;;;;;4924250;28;1227;-79
2022/07/19 15:32:37;;;;;;;;;;;;;;;;;;4919765;29;1508;-81
2022/07/19 15:35:05;;;;;;;;;;;;;;;;;;4919289;28;1978;-80
2022/07/19 15:37:32;;;;;;;;;;;;;;;;;;4923774;29;1114;-81
2022/07/19 15:39:58;;;;;;;;;;;;;;;;;;4924517;28;1276;-81
2022/07/19 15:42:24;;;;;;;;;;;;;;;;;;4927993;28;1412;-81
2022/07/19 15:44:50;;;;;;;;;;;;;;;;;;4945780;28;1052;-80
2022/07/19 15:47:16;;;;;;;;;;;;;;;;;;5039529;28;1245;-82
2022/07/19 15:49:42;;;;;;;;;;;;;;;;;;4925849;28;838;-81
2022/07/19 15:52:10;;;;;;;;;;;;;;;;;;5022694;28;1311;-81
2022/07/19 15:54:36;;;;;;;;;;;;;;;;;;4921948;28;1978;-80
2022/07/19 15:57:03;;;;;;;;;;;;;;;;;;4918160;28;673;-80
2022/07/19 15:59:29;;;;;;;;;;;;;;;;;;5019673;28;1349;-80
2022/07/19 16:01:55;;;;;;;;;;;;;;;;;;4923124;28;1414;-80
2022/07/19 16:04:21;;;;;;;;;;;;;;;;;;4921336;28;1115;-79
2022/07/19 16:06:48;;;;;;;;;;;;;;;;;;4923172;29;1072;-78
2022/07/19 16:09:15;;;;;;;;;;;;;;;;;;4915011;29;1177;-80
2022/07/19 16:11:41;;;;;;;;;;;;;;;;;;4915296;28;1233;-79
2022/07/19 16:14:07;;;;;;;;;;;;;;;;;;4908148;28;1978;-78
2022/07/19 16:16:35;;;;;;;;;;;;;;;;;;5005409;28;1628;-79
2022/07/19 16:19:01;;;;;;;;;;;;;;;;;;5010971;28;1336;-79
2022/07/19 16:21:27;;;;;;;;;;;;;;;;;;5009208;28;1192;-78
2022/07/19 16:23:53;;;;;;;;;;;;;;;;;;4911725;28;1318;-78
2022/07/19 16:26:21;;;;;;;;;;;;;;;;;;4912060;28;1124;-77
2022/07/19 16:28:47;;;;;;;;;;;;;;;;;;4911261;28;1453;-78
2022/07/19 16:31:13;;;;;;;;;;;;;;;;;;4911413;29;787;-79
2022/07/19 16:33:39;;;;;;;;;;;;;;;;;;4912402;28;1438;-76
2022/07/19 16:36:06;;;;;;;;;;;;;;;;;;4910657;29;1919;-77
2022/07/19 16:38:32;;;;;;;;;;;;;;;;;;4912324;29;848;-77
2022/07/19 16:40:58;;;;;;;;;;;;;;;;;;4914798;29;1060;-78
2022/07/19 16:43:26;;;;;;;;;;;;;;;;;;5024375;28;1480;-79
2022/07/19 16:45:52;;;;;;;;;;;;;;;;;;4933751;28;1099;-78
2022/07/19 16:48:18;;;;;;;;;;;;;;;;;;5032033;28;1120;-79
2022/07/19 16:50:44;;;;;;;;;;;;;;;;;;4934037;28;984;-79
2022/07/19 16:53:11;;;;;;;;;;;;;;;;;;4933566;28;1362;-77
2022/07/19 16:55:37;;;;;;;;;;;;;;;;;;4933695;28;1915;-77
2022/07/19 16:58:03;;;;;;;;;;;;;;;;;;4932684;28;1052;-77
2022/07/19 17:00:31;;;;;;;;;;;;;;;;;;4933503;29;1045;-79
2022/07/19 17:02:57;;;;;;;;;;;;;;;;;;4933560;28;1352;-77
2022/07/19 17:05:25;;;;;;;;;;;;;;;;;;4933594;28;1056;-79
2022/07/19 17:07:51;;;;;;;;;;;;;;;;;;4933388;28;1088;-78
2022/07/19 17:10:20;;;;;;;;;;;;;;;;;;4934578;28;965;-78
2022/07/19 17:12:46;;;;;;;;;;;;;;;;;;4934197;28;1446;-78